Share

Paphos, Cyprus

Paphos (LCPH) Elev 26 ft | 34.72 °N, 32.48 °E | Change Station

Current weather conditions updated 24 minutes ago

Partly Cloudy
Partly Cloudy
72 °F
Feels Like 72 °F
N
12
Wind Variable Wind from SE
Sunrise 6:15 AM
Sunset 7:24 PM
Moon Waning Gibbous

Tomorrow is forecast to be Cooler than today. Showers possible.

Pressure 29.89 in
Visibility 6.2 miles
Clouds Few 2500 ft
Dew Point 57 °F
Humidity 60%
Rainfall 0.00 in
Snow Depth Not available.
UV 4 out of 16
Pollen Not available.
Air Quality Not available.
Flu Activity Not available.
METAR LCPH 181330Z 13010KT 9999 FEW025 22/14 Q1012

More Conditions Fewer Conditions

Pressure 29.89 in
Visibility 6.2 miles
Clouds Few 2500 ft
Dew Point 57 °F
Humidity 60%
Rainfall 0.00 in
Snow Depth Not available.
UV 4 out of 16
Pollen Not available.
Air Quality Not available.
Flu Activity Not available.
METAR LCPH 181330Z 13010KT 9999 FEW025 22/14 Q1012

More Conditions Fewer Conditions

10-Day Forecast

Almanac

Astronomy

Apr. 18, 2014 Rise Set
Actual Time 6:15 AM EEST 7:24 PM EEST
Civil Twilight 5:48 AM EEST 7:50 PM EEST
Nautical Twilight 5:17 AM EEST 8:21 PM EEST
Astronomical Twilight 4:45 AM EEST 8:54 PM EEST
Moon 10:44 PM EEST 8:24 AM EEST
Length of Visible Light 14h 01m
Length of Day
13h 09m
Tomorrow will be 2m 2s longer.
Waning Gibbous, 88% of the Moon is Illuminated
Today
Waning Gibbous
Apr 22
Last Quarter
Apr 29
New
May 6
First Quarter
May 14
Full

Yesterday's Extremes

Country Highs Country Lows

Community

  • What's for Lunch?
    What's for Lunch?
  • SUNRISE THROUGH THE TREES.
    SUNRISE THROUGH THE TREES.
  • Dog Wood Blossoms
    Dog Wood Blossoms
  • Morning Light
    Morning Light
  • New Day
    New Day

WunderPhotos

Upload Photos

1,702,371 photos uploaded!

Nearby

Snow Depth

Not available.

Coastal Water Temperatures

Place Temperature
No Stations Reporting

Earthquake Activity

City Distance Mag. Time & Date
No recent earthquake activity has been reported nearby.
Minimum magnitude displayed is 2.5.

Nearby Weather Stations

Station Location Temp. Heat Index Dew Point Humidity Wind Precip. Elev Updated Type
Aphrodite Hills, APHRODITE HILLS 73.0 °F 77 °F 51 °F 46% South  at  3.8 mph 0.00 in / hr 620 ft 4:54 PM EEST Rapid Fire
Paphos, Argaka, Polis 75.6 °F 78 °F 47 °F 36% SE  at  10.0 mph 0.00 in / hr 207 ft 3:54 PM EET Rapid Fire

Show More Stations Show Fewer Stations

What do you think?

We're not finished. Please let us know what you like, what you don't like, and what you are still missing.